createdAt,value
2024-03-02T00:00:28.507Z,97907.69
2024-03-02T00:02:59.390Z,97913.47
2024-03-02T00:05:30.247Z,97907.97
2024-03-02T00:08:03.893Z,97899.41
2024-03-02T00:10:43.840Z,97905.06
2024-03-02T00:13:14.692Z,97909.41
2024-03-02T00:15:51.243Z,97895.56
2024-03-02T00:18:24.962Z,97890.50
2024-03-02T00:20:59.230Z,97889.91
2024-03-02T00:23:35.071Z,97890.66
2024-03-02T00:26:06.904Z,97895.72
2024-03-02T00:28:39.848Z,97889.06
2024-03-02T00:31:13.186Z,97887.97
2024-03-02T00:33:47.264Z,97877.69
2024-03-02T00:36:20.325Z,97876.78
2024-03-02T00:38:55.665Z,97876.84
2024-03-02T00:41:28.083Z,97871.81
2024-03-02T00:44:07.402Z,97871.69
2024-03-02T00:46:39.734Z,97868.22
2024-03-02T00:49:23.209Z,97860.88
2024-03-02T00:51:55.642Z,97854.97
2024-03-02T00:54:30.992Z,97851.22
2024-03-02T00:57:02.106Z,97849.47
2024-03-02T00:59:33.256Z,97846.91
2024-03-02T01:02:04.133Z,97848.13
2024-03-02T01:04:34.977Z,97850.44
2024-03-02T01:07:05.852Z,97851.44
2024-03-02T01:09:39.441Z,97854.47
2024-03-02T01:12:11.399Z,97849.19
2024-03-02T01:14:42.517Z,97853.66
2024-03-02T01:17:13.669Z,97849.41
2024-03-02T01:19:46.494Z,97834.28
2024-03-02T01:22:17.496Z,97823.50
2024-03-02T01:24:51.311Z,97817.63
2024-03-02T01:27:22.442Z,97821.34
2024-03-02T01:29:53.338Z,97807.03
2024-03-02T01:32:24.278Z,97805.69
2024-03-02T01:34:55.146Z,97802.56
2024-03-02T01:37:26.484Z,97806.88
2024-03-02T01:40:00.198Z,97807.63
2024-03-02T01:42:32.165Z,97808.31
2024-03-02T01:45:03.615Z,97811.56
2024-03-02T01:47:34.584Z,97814.34
2024-03-02T01:50:05.563Z,97814.47
2024-03-02T01:52:36.422Z,97799.97
2024-03-02T01:55:10.600Z,97795.22
2024-03-02T01:57:43.371Z,97797.78
2024-03-02T02:00:15.932Z,97820.03
2024-03-02T02:02:47.409Z,97826.00
2024-03-02T02:05:18.732Z,97824.00
2024-03-02T02:07:49.872Z,97819.31
2024-03-02T02:10:23.562Z,97808.06
2024-03-02T02:12:54.665Z,97803.19
2024-03-02T02:15:29.825Z,97785.88
2024-03-02T02:18:01.449Z,97769.06
2024-03-02T02:20:29.862Z,97773.44
2024-03-02T02:23:04.314Z,97770.25
2024-03-02T02:25:35.470Z,97755.84
2024-03-02T02:28:06.410Z,97759.31
2024-03-02T02:30:37.527Z,97760.13
2024-03-02T02:33:09.130Z,97757.09
2024-03-02T02:35:40.036Z,97762.16
2024-03-02T02:38:13.680Z,97752.59
2024-03-02T02:40:44.996Z,97756.25
2024-03-02T02:43:15.912Z,97756.41
2024-03-02T02:45:46.821Z,97752.72
2024-03-02T02:48:17.771Z,97755.44
2024-03-02T02:50:48.800Z,97757.00
2024-03-02T02:53:22.378Z,97758.06
2024-03-02T02:55:53.393Z,97763.69
2024-03-02T02:58:24.391Z,97766.13
2024-03-02T03:00:58.305Z,97757.38
2024-03-02T03:03:29.361Z,97758.28
2024-03-02T03:06:00.270Z,97759.13
2024-03-02T03:08:33.797Z,97776.50
2024-03-02T03:11:05.120Z,97792.50
2024-03-02T03:13:36.187Z,97788.41
2024-03-02T03:16:07.786Z,97797.88
2024-03-02T03:18:39.854Z,97798.69
2024-03-02T03:21:10.738Z,97797.75
2024-03-02T03:23:44.222Z,97794.28
2024-03-02T03:26:15.144Z,97793.41
2024-03-02T03:28:46.019Z,97795.75
2024-03-02T03:31:16.861Z,97792.38
2024-03-02T03:33:47.901Z,97782.25
2024-03-02T03:36:18.854Z,97786.44
2024-03-02T03:38:52.511Z,97775.41
2024-03-02T03:41:23.747Z,97775.59
2024-03-02T03:43:54.637Z,97779.03
2024-03-02T03:46:25.474Z,97772.22
2024-03-02T03:48:57.356Z,97781.84
2024-03-02T03:51:28.211Z,97773.22
2024-03-02T03:54:01.731Z,97782.59
2024-03-02T03:56:32.515Z,97781.50
2024-03-02T03:59:03.872Z,97782.69
2024-03-02T04:01:35.144Z,97782.59
2024-03-02T04:04:06.321Z,97773.44
2024-03-02T04:06:37.225Z,97775.81
2024-03-02T04:09:10.939Z,97775.72
2024-03-02T04:11:42.435Z,97775.13
2024-03-02T04:14:13.869Z,97776.88
2024-03-02T04:16:44.780Z,97776.78
2024-03-02T04:19:15.804Z,97776.66
2024-03-02T04:21:47.128Z,97783.84
2024-03-02T04:24:20.768Z,97786.13
2024-03-02T04:26:51.649Z,97778.72
2024-03-02T04:29:22.572Z,97786.50
2024-03-02T04:31:53.566Z,97786.66
2024-03-02T04:34:24.483Z,97789.88
2024-03-02T04:36:55.389Z,97787.88
2024-03-02T04:39:29.245Z,97781.00
2024-03-02T04:42:00.402Z,97783.63
2024-03-02T04:44:31.294Z,97781.19
2024-03-02T04:47:02.159Z,97793.81
2024-03-02T04:49:33.126Z,97794.44
2024-03-02T04:52:04.176Z,97791.72
2024-03-02T04:54:57.821Z,97791.59
2024-03-02T04:57:26.155Z,97797.28
2024-03-02T04:59:57.084Z,97802.13
2024-03-02T05:02:28.067Z,97800.25
2024-03-02T05:04:59.199Z,97797.63
2024-03-02T05:07:30.111Z,97792.66
2024-03-02T05:10:03.699Z,97791.91
2024-03-02T05:12:56.993Z,97802.78
2024-03-02T05:15:28.149Z,97802.13
2024-03-02T05:17:59.515Z,97796.66
2024-03-02T05:20:30.451Z,97795.94
2024-03-02T05:23:01.603Z,97799.19
2024-03-02T05:25:36.689Z,97803.41
2024-03-02T05:28:08.462Z,97793.75
2024-03-02T05:30:39.377Z,97800.09
2024-03-02T05:33:10.317Z,97803.53
2024-03-02T05:35:41.152Z,97802.88
2024-03-02T05:38:12.104Z,97795.22
2024-03-02T05:40:45.852Z,97787.50
2024-03-02T05:43:16.881Z,97789.59
2024-03-02T05:45:47.811Z,97790.81
2024-03-02T05:48:18.756Z,97790.09
2024-03-02T05:50:50.127Z,97790.09
2024-03-02T05:53:20.993Z,97781.41
2024-03-02T05:55:57.233Z,97780.59
2024-03-02T05:58:38.721Z,97773.75
2024-03-02T06:01:09.748Z,97770.00
2024-03-02T06:03:40.714Z,97762.25
2024-03-02T06:06:11.919Z,97766.41
2024-03-02T06:08:43.086Z,97761.16
2024-03-02T06:11:16.632Z,97756.63
2024-03-02T06:13:47.654Z,97759.84
2024-03-02T06:16:18.506Z,97761.56
2024-03-02T06:18:49.490Z,97761.34
2024-03-02T06:21:20.933Z,97757.88
2024-03-02T06:23:51.754Z,97764.13
2024-03-02T06:26:26.268Z,97763.00
2024-03-02T06:28:57.701Z,97764.53
2024-03-02T06:31:28.555Z,97760.72
2024-03-02T06:33:59.424Z,97765.13
2024-03-02T06:36:30.295Z,97758.13
2024-03-02T06:39:01.682Z,97760.41
2024-03-02T06:41:35.397Z,97756.81
2024-03-02T06:44:06.985Z,97761.34
2024-03-02T06:46:37.835Z,97760.22
2024-03-02T06:49:08.862Z,97764.25
2024-03-02T06:51:39.800Z,97771.09
2024-03-02T06:54:10.684Z,97765.88
2024-03-02T06:56:44.129Z,97761.44
2024-03-02T06:59:15.275Z,97758.75
2024-03-02T07:01:46.362Z,97766.13
2024-03-02T07:04:17.193Z,97761.72
2024-03-02T07:06:48.013Z,97766.31
2024-03-02T07:09:18.945Z,97762.78
2024-03-02T07:11:52.688Z,97771.94
2024-03-02T07:14:38.800Z,97779.09
2024-03-02T07:17:11.276Z,97780.00
2024-03-02T07:19:43.236Z,97777.38
2024-03-02T07:22:14.182Z,97776.16
2024-03-02T07:24:45.724Z,97781.88
2024-03-02T07:27:19.762Z,97778.63
2024-03-02T07:29:50.598Z,97780.53
2024-03-02T07:32:21.613Z,97782.22
2024-03-02T07:34:52.465Z,97779.56
2024-03-02T07:37:23.367Z,97777.53
2024-03-02T07:39:54.768Z,97775.50
2024-03-02T07:42:28.446Z,97772.97
2024-03-02T07:44:59.394Z,97776.34
2024-03-02T07:47:30.282Z,97769.47
2024-03-02T07:50:01.148Z,97764.97
2024-03-02T07:52:31.961Z,97776.09
2024-03-02T07:55:02.812Z,97774.66
2024-03-02T07:57:36.924Z,97772.94
2024-03-02T08:00:08.948Z,97774.53
2024-03-02T08:02:44.150Z,97768.66
2024-03-02T08:05:15.056Z,97774.47
2024-03-02T08:07:46.115Z,97766.44
2024-03-02T08:10:17.117Z,97769.34
2024-03-02T08:12:50.730Z,97766.09
2024-03-02T08:15:21.720Z,97764.50
2024-03-02T08:17:52.732Z,97764.59
2024-03-02T08:20:23.970Z,97767.25
2024-03-02T08:22:56.400Z,97758.50
2024-03-02T08:25:27.355Z,97764.50
2024-03-02T08:28:01.154Z,97768.50
2024-03-02T08:30:32.055Z,97774.25
2024-03-02T08:33:02.960Z,97762.16
2024-03-02T08:35:37.162Z,97764.00
2024-03-02T08:38:08.777Z,97760.41
2024-03-02T08:40:39.910Z,97757.88
2024-03-02T08:43:14.074Z,97760.28
2024-03-02T08:45:45.248Z,97764.53
2024-03-02T08:48:16.141Z,97770.34
2024-03-02T08:50:46.972Z,97776.22
2024-03-02T08:53:19.939Z,97774.28
2024-03-02T08:55:51.035Z,97772.50
2024-03-02T08:58:24.559Z,97773.59
2024-03-02T09:00:55.951Z,97776.44
2024-03-02T09:03:27.006Z,97783.09
2024-03-02T09:05:59.213Z,97785.91
2024-03-02T09:08:30.479Z,97797.13
2024-03-02T09:11:01.883Z,97796.72
2024-03-02T09:13:35.866Z,97793.63
2024-03-02T09:16:07.105Z,97790.94
2024-03-02T09:18:38.064Z,97795.16
2024-03-02T09:21:09.291Z,97799.03
2024-03-02T09:23:41.631Z,97799.56
2024-03-02T09:26:12.444Z,97793.88
2024-03-02T09:28:47.479Z,97793.84
2024-03-02T09:31:18.486Z,97787.63
2024-03-02T09:33:49.348Z,97785.25
2024-03-02T09:36:24.006Z,97783.22
2024-03-02T09:38:54.869Z,97777.13
2024-03-02T09:41:26.071Z,97771.78
2024-03-02T09:44:00.061Z,97783.31
2024-03-02T09:46:30.523Z,97786.47
2024-03-02T09:49:01.810Z,97790.22
2024-03-02T09:51:32.878Z,97782.75
2024-03-02T09:54:13.077Z,97775.94
2024-03-02T09:56:52.388Z,97772.84
2024-03-02T09:59:26.089Z,97770.28
2024-03-02T10:02:01.953Z,97757.88
2024-03-02T10:04:34.111Z,97769.03
2024-03-02T10:07:16.072Z,97761.91
2024-03-02T10:09:48.944Z,97760.66
2024-03-02T10:12:20.937Z,97759.69
2024-03-02T10:15:08.960Z,97762.06
2024-03-02T10:17:40.056Z,97764.44
2024-03-02T10:20:27.621Z,97767.56
2024-03-02T10:22:58.504Z,97769.66
2024-03-02T10:25:43.526Z,97767.06
2024-03-02T10:28:22.359Z,97766.47
2024-03-02T10:30:56.205Z,97766.13
2024-03-02T10:33:28.602Z,97758.94
2024-03-02T10:36:00.572Z,97772.88
2024-03-02T10:38:32.032Z,97753.22
2024-03-02T10:41:05.170Z,97753.97
2024-03-02T10:43:36.807Z,97747.38
2024-03-02T10:46:10.509Z,97755.00
2024-03-02T10:48:44.616Z,97741.72
2024-03-02T10:51:16.254Z,97738.13
2024-03-02T10:53:47.175Z,97735.38
2024-03-02T10:56:26.898Z,97734.69
2024-03-02T10:59:05.416Z,97732.59
2024-03-02T11:01:43.106Z,97733.25
2024-03-02T11:04:16.633Z,97731.00
2024-03-02T11:06:52.780Z,97727.94
2024-03-02T11:09:26.227Z,97720.56
2024-03-02T11:12:10.003Z,97717.78
2024-03-02T11:14:44.772Z,97711.72
2024-03-02T11:17:20.019Z,97718.91
2024-03-02T11:19:51.622Z,97711.09
2024-03-02T11:22:23.223Z,97715.63
2024-03-02T11:24:54.719Z,97723.94
2024-03-02T11:28:05.736Z,97727.06
2024-03-02T11:30:55.484Z,97721.72
2024-03-02T11:33:32.617Z,97719.63
2024-03-02T11:36:04.996Z,97717.53
2024-03-02T11:38:37.355Z,97716.31
2024-03-02T11:41:12.660Z,97712.75
2024-03-02T11:43:45.655Z,97703.72
2024-03-02T11:46:16.880Z,97700.78
2024-03-02T11:48:51.168Z,97697.63
2024-03-02T11:51:22.064Z,97701.69
2024-03-02T11:53:54.343Z,97704.34
2024-03-02T11:56:26.181Z,97699.50
2024-03-02T11:58:59.165Z,97705.66
2024-03-02T12:01:30.335Z,97702.25
2024-03-02T12:04:04.650Z,97697.03
2024-03-02T12:06:35.629Z,97704.13
2024-03-02T12:09:08.002Z,97694.16
2024-03-02T12:11:38.990Z,97695.59
2024-03-02T12:14:17.126Z,97695.25
2024-03-02T12:16:49.107Z,97697.19
2024-03-02T12:19:22.568Z,97702.03
2024-03-02T12:21:53.465Z,97688.97
2024-03-02T12:24:25.611Z,97695.25
2024-03-02T12:26:57.635Z,97695.13
2024-03-02T12:29:28.552Z,97698.06
2024-03-02T12:31:59.401Z,97696.09
2024-03-02T12:34:33.054Z,97693.88
2024-03-02T12:37:03.704Z,97693.38
2024-03-02T12:39:34.996Z,97696.50
2024-03-02T12:42:09.233Z,97703.59
2024-03-02T12:44:40.411Z,97693.91
2024-03-02T12:47:14.072Z,97693.91
2024-03-02T12:49:50.837Z,97698.22
2024-03-02T12:52:22.923Z,97693.69
2024-03-02T12:54:59.019Z,97699.19
2024-03-02T12:57:31.328Z,97697.72
2024-03-02T13:00:03.606Z,97696.72
2024-03-02T13:02:35.456Z,97698.91
2024-03-02T13:05:12.461Z,97699.41
2024-03-02T13:07:43.947Z,97694.19
2024-03-02T13:10:16.843Z,97700.13
2024-03-02T13:12:49.732Z,97702.81
2024-03-02T13:15:21.286Z,97706.81
2024-03-02T13:18:03.117Z,97703.81
2024-03-02T13:20:46.671Z,97709.59
2024-03-02T13:23:22.094Z,97698.22
2024-03-02T13:26:09.077Z,97702.97
2024-03-02T13:28:58.221Z,97699.56
2024-03-02T13:31:50.694Z,97701.88
2024-03-02T13:34:37.395Z,97703.72
2024-03-02T13:37:16.996Z,97711.34
2024-03-02T13:40:18.952Z,97713.69
2024-03-02T13:42:59.062Z,97710.13
2024-03-02T13:45:47.324Z,97703.16
2024-03-02T13:48:25.040Z,97707.22
2024-03-02T13:50:56.272Z,97698.91
2024-03-02T13:53:34.088Z,97703.88
2024-03-02T13:56:08.173Z,97698.91
2024-03-02T13:58:49.022Z,97699.06
2024-03-02T14:01:21.897Z,97697.03
2024-03-02T14:03:55.650Z,97694.84
2024-03-02T14:06:30.463Z,97695.97
2024-03-02T14:09:07.366Z,97690.03
2024-03-02T14:11:39.159Z,97689.53
2024-03-02T14:14:10.533Z,97691.88
2024-03-02T14:16:42.610Z,97693.00
2024-03-02T14:19:15.383Z,97697.13
2024-03-02T14:21:47.290Z,97692.41
2024-03-02T14:24:25.394Z,97691.03
2024-03-02T14:27:05.586Z,97693.28
2024-03-02T14:29:41.984Z,97692.16
2024-03-02T14:32:13.196Z,97696.78
2024-03-02T14:34:44.391Z,97698.84
2024-03-02T14:37:15.481Z,97694.41
2024-03-02T14:39:49.538Z,97694.66
2024-03-02T14:42:20.829Z,97695.63
2024-03-02T14:44:52.166Z,97697.09
2024-03-02T14:47:26.043Z,97695.16
2024-03-02T14:49:57.436Z,97699.66
2024-03-02T14:52:28.851Z,97702.13
2024-03-02T14:55:04.739Z,97707.97
2024-03-02T14:57:35.932Z,97713.88
2024-03-02T15:00:09.134Z,97714.47
2024-03-02T15:02:40.681Z,97711.66
2024-03-02T15:05:12.632Z,97712.50
2024-03-02T15:07:43.634Z,97708.25
2024-03-02T15:10:18.405Z,97712.19
2024-03-02T15:12:49.411Z,97715.34
2024-03-02T15:15:21.559Z,97716.41
2024-03-02T15:17:53.789Z,97719.72
2024-03-02T15:20:25.476Z,97722.47
2024-03-02T15:22:56.588Z,97716.81
2024-03-02T15:25:30.363Z,97714.75
2024-03-02T15:28:01.582Z,97720.91
2024-03-02T15:30:33.390Z,97720.25
2024-03-02T15:33:10.104Z,97722.38
2024-03-02T15:35:41.578Z,97726.63
2024-03-02T15:38:22.079Z,97728.47
2024-03-02T15:41:03.989Z,97735.06
2024-03-02T15:43:37.501Z,97737.41
2024-03-02T15:46:09.727Z,97742.16
2024-03-02T15:48:42.178Z,97745.13
2024-03-02T15:51:20.497Z,97741.44
2024-03-02T15:54:24.232Z,97728.13
2024-03-02T15:57:24.714Z,97754.31
2024-03-02T16:00:11.503Z,97756.88
2024-03-02T16:02:44.313Z,97758.66
2024-03-02T16:05:23.526Z,97761.91
2024-03-02T16:08:01.064Z,97758.66
2024-03-02T16:10:34.384Z,97758.97
2024-03-02T16:13:16.902Z,97762.34
2024-03-02T16:16:09.773Z,97769.41
2024-03-02T16:18:44.777Z,97769.78
2024-03-02T16:21:16.668Z,97764.44
2024-03-02T16:23:48.097Z,97778.63
2024-03-02T16:26:19.042Z,97776.25
2024-03-02T16:28:52.673Z,97779.72
2024-03-02T16:31:23.738Z,97782.06
2024-03-02T16:33:55.113Z,97779.66
2024-03-02T16:36:29.394Z,97785.75
2024-03-02T16:39:00.439Z,97794.19
2024-03-02T16:41:34.630Z,97804.63
2024-03-02T16:44:08.705Z,97801.75
2024-03-02T16:46:54.757Z,97803.38
2024-03-02T16:49:31.296Z,97806.09
2024-03-02T16:52:04.594Z,97811.25
2024-03-02T16:54:36.012Z,97811.94
2024-03-02T16:57:07.942Z,97819.91
2024-03-02T16:59:41.840Z,97823.34
2024-03-02T17:02:12.816Z,97823.44
2024-03-02T17:04:44.411Z,97823.59
2024-03-02T17:07:16.275Z,97824.56
2024-03-02T17:09:47.606Z,97824.25
2024-03-02T17:12:18.914Z,97826.16
2024-03-02T17:14:53.108Z,97824.47
2024-03-02T17:17:27.488Z,97826.22
2024-03-02T17:19:59.135Z,97825.06
2024-03-02T17:22:30.113Z,97830.31
2024-03-02T17:25:01.190Z,97830.13
2024-03-02T17:27:32.550Z,97838.28
2024-03-02T17:30:07.286Z,97828.53
2024-03-02T17:32:42.734Z,97824.13
2024-03-02T17:35:13.827Z,97832.41
2024-03-02T17:37:47.015Z,97829.88
2024-03-02T17:40:24.068Z,97829.84
2024-03-02T17:42:56.993Z,97828.97
2024-03-02T17:45:30.520Z,97831.47
2024-03-02T17:48:01.597Z,97828.88
2024-03-02T17:50:33.732Z,97834.16
2024-03-02T17:53:07.358Z,97837.34
2024-03-02T17:55:38.687Z,97832.84
2024-03-02T17:58:09.698Z,97831.06
2024-03-02T18:00:43.522Z,97837.13
2024-03-02T18:03:14.650Z,97835.94
2024-03-02T18:05:45.572Z,97843.66
2024-03-02T18:08:17.303Z,97839.59
2024-03-02T18:10:49.037Z,97843.81
2024-03-02T18:13:20.177Z,97839.59
2024-03-02T18:15:54.501Z,97840.28
2024-03-02T18:18:26.850Z,97838.81
2024-03-02T18:20:58.240Z,97832.53
2024-03-02T18:23:30.200Z,97834.53
2024-03-02T18:26:01.342Z,97839.13
2024-03-02T18:28:32.475Z,97839.84
2024-03-02T18:31:06.574Z,97845.00
2024-03-02T18:33:38.041Z,97836.13
2024-03-02T18:36:11.023Z,97832.88
2024-03-02T18:38:45.655Z,97831.97
2024-03-02T18:41:18.022Z,97833.41
2024-03-02T18:43:49.417Z,97833.38
2024-03-02T18:46:23.477Z,97833.56
2024-03-02T18:48:52.433Z,97831.84
2024-03-02T18:51:26.763Z,97834.44
2024-03-02T18:53:57.829Z,97825.91
2024-03-02T18:56:28.819Z,97836.13
2024-03-02T18:58:59.935Z,97834.41
2024-03-02T19:01:33.663Z,97835.34
2024-03-02T19:04:05.782Z,97835.34
2024-03-02T19:06:36.777Z,97836.13
2024-03-02T19:09:08.091Z,97837.28
2024-03-02T19:11:39.414Z,97845.69
2024-03-02T19:14:12.071Z,97837.28
2024-03-02T19:16:45.979Z,97845.09
2024-03-02T19:19:17.012Z,97849.44
2024-03-02T19:21:55.719Z,97845.19
2024-03-02T19:24:31.528Z,97848.66
2024-03-02T19:27:02.497Z,97851.44
2024-03-02T19:29:33.594Z,97846.53
2024-03-02T19:32:11.939Z,97844.75
2024-03-02T19:34:43.710Z,97844.97
2024-03-02T19:37:14.766Z,97850.09
2024-03-02T19:39:46.185Z,97856.31
2024-03-02T19:42:17.294Z,97847.88
2024-03-02T19:44:48.127Z,97850.47
2024-03-02T19:47:23.316Z,97846.53
2024-03-02T19:49:54.372Z,97850.59
2024-03-02T19:52:26.841Z,97858.53
2024-03-02T19:54:58.172Z,97861.31
2024-03-02T19:57:30.683Z,97858.81
2024-03-02T20:00:01.555Z,97861.44
2024-03-02T20:02:35.152Z,97860.00
2024-03-02T20:05:06.123Z,97864.34
2024-03-02T20:07:37.245Z,97869.50
2024-03-02T20:10:09.618Z,97863.78
2024-03-02T20:12:41.259Z,97862.03
2024-03-02T20:15:14.249Z,97862.34
2024-03-02T20:17:47.847Z,97863.19
2024-03-02T20:20:19.232Z,97865.75
2024-03-02T20:22:51.579Z,97869.13
2024-03-02T20:25:22.504Z,97859.75
2024-03-02T20:27:53.523Z,97859.88
2024-03-02T20:30:24.650Z,97862.34
2024-03-02T20:32:58.566Z,97859.75
2024-03-02T20:35:29.660Z,97862.47
2024-03-02T20:38:02.268Z,97860.81
2024-03-02T20:40:35.004Z,97858.25
2024-03-02T20:43:11.865Z,97857.44
2024-03-02T20:45:43.224Z,97864.31
2024-03-02T20:48:21.611Z,97858.44
2024-03-02T20:50:53.029Z,97861.84
2024-03-02T20:53:34.721Z,97854.25
2024-03-02T20:56:32.142Z,97844.38
2024-03-02T20:59:18.697Z,97846.81
2024-03-02T21:01:51.851Z,97852.94
2024-03-02T21:04:28.004Z,97850.38
2024-03-02T21:06:59.339Z,97854.78
2024-03-02T21:09:30.667Z,97857.63
2024-03-02T21:12:06.538Z,97852.56
2024-03-02T21:14:41.373Z,97853.56
2024-03-02T21:17:12.971Z,97861.22
2024-03-02T21:19:50.037Z,97856.84
2024-03-02T21:22:23.213Z,97856.97
2024-03-02T21:24:54.824Z,97853.66
2024-03-02T21:27:40.966Z,97858.13
2024-03-02T21:30:13.548Z,97858.25
2024-03-02T21:32:50.026Z,97852.31
2024-03-02T21:35:34.421Z,97861.53
2024-03-02T21:38:07.615Z,97861.50
2024-03-02T21:40:38.662Z,97866.63
2024-03-02T21:43:09.803Z,97864.16
2024-03-02T21:45:40.799Z,97868.38
2024-03-02T21:48:12.275Z,97864.22
2024-03-02T21:50:46.207Z,97871.00
2024-03-02T21:53:17.075Z,97868.47
2024-03-02T21:55:48.004Z,97874.56
2024-03-02T21:58:18.939Z,97873.00
2024-03-02T22:00:50.278Z,97872.13
2024-03-02T22:03:21.322Z,97869.63
2024-03-02T22:05:54.796Z,97878.31
2024-03-02T22:08:28.741Z,97861.19
2024-03-02T22:11:02.138Z,97863.78
2024-03-02T22:13:33.225Z,97865.59
2024-03-02T22:16:04.136Z,97870.63
2024-03-02T22:18:35.031Z,97862.91
2024-03-02T22:21:08.819Z,97866.31
2024-03-02T22:23:42.024Z,97862.97
2024-03-02T22:26:12.942Z,97868.91
2024-03-02T22:28:44.452Z,97879.16
2024-03-02T22:31:15.441Z,97868.94
2024-03-02T22:33:46.378Z,97875.78
2024-03-02T22:36:19.828Z,97875.84
2024-03-02T22:38:50.637Z,97875.06
2024-03-02T22:41:21.523Z,97881.13
2024-03-02T22:43:52.461Z,97882.91
2024-03-02T22:46:23.618Z,97883.78
2024-03-02T22:48:55.694Z,97878.56
2024-03-02T22:51:30.238Z,97879.50
2024-03-02T22:54:01.138Z,97881.13
2024-03-02T22:56:32.269Z,97882.16
2024-03-02T22:59:03.723Z,97882.09
2024-03-02T23:01:36.115Z,97881.13
2024-03-02T23:04:08.557Z,97881.97
2024-03-02T23:06:42.232Z,97875.34
2024-03-02T23:09:13.184Z,97879.59
2024-03-02T23:11:44.200Z,97882.28
2024-03-02T23:14:15.061Z,97886.50
2024-03-02T23:16:46.619Z,97888.19
2024-03-02T23:19:22.178Z,97887.41
2024-03-02T23:21:56.045Z,97877.19
2024-03-02T23:24:26.878Z,97882.41
2024-03-02T23:26:57.768Z,97882.41
2024-03-02T23:29:28.644Z,97881.53
2024-03-02T23:31:59.811Z,97880.72
2024-03-02T23:34:31.235Z,97885.00
2024-03-02T23:37:04.969Z,97887.53
2024-03-02T23:40:11.529Z,97887.50
2024-03-02T23:42:42.572Z,97875.66
2024-03-02T23:45:14.266Z,97885.97
2024-03-02T23:47:45.264Z,97877.50
2024-03-02T23:50:16.225Z,97879.97
2024-03-02T23:52:49.684Z,97875.94
2024-03-02T23:55:20.834Z,97876.66
2024-03-02T23:57:51.977Z,97870.78
